Pagina principale
METAR-TAF:

METAR-TAF

Aeroporti :

Aeroporto Modibo Keïta

Bamako, Mali

latitudine: 12-32N, longitudine: 007-57W, altezza: 380 m

Osservazione

Il bollettino è stato emesso 23 minuti fa, alle 18:00 UTC
Vento 6 kt da est/nord-est
Temperature 31°C
Umidità 26%
Pressione 1012 hPa
Visibilità 10 km o più
nessuna nube inferiore a 1500 m e nessun cumulonembo

METAR: GABS 211800Z 06006KT CAVOK 31/09 Q1012 NOSIG

Ora: 18:23 (18:23 UTC)

Previsione

Il bollettino è stato emesso 1 ora e 23 minuti fa, alle 17:00 UTC
Previsione valida dal 21 alle 18 UTC al 22 alle 24 UTC
Vento 6 kt da nord-est
Visibilità 10 km o più
nessuna nube inferiore a 1500 m e nessun cumulonembo

TAF: GABS 211700Z 2118/2224 04006KT CAVOK

Osservazioni e previsioni meteorologiche di più di 4000 aeroporti (messaggi METAR e TAF).

Le stazioni disponibili sono rappresentate dai dischi gialli e rossi sulla carta.

Puntare il mouse per vedere il nome della stazione.

Clicca sopra per visualizzare le osservazioni e previsioni meteorologiche.

Per cambiare la mappa : fare clic sui pulsanti verdi con una croce nera per ingrandire, il pulsante verde con un trattino per diminuire, o sulla freccia verde per le mappe adiacenti.


METAR-TAF: